sensor_id;sensor_type;location;lat;lon;timestamp;P1;durP1;ratioP1;P2;durP2;ratioP2
33184;SDS011;19550;42.872;25.494;2023-04-28T00:00:52;6.32;;;4.50;;
33184;SDS011;19550;42.872;25.494;2023-04-28T00:03:19;9.48;;;4.70;;
33184;SDS011;19550;42.872;25.494;2023-04-28T00:05:45;10.23;;;4.78;;
33184;SDS011;19550;42.872;25.494;2023-04-28T00:08:13;16.13;;;5.65;;
33184;SDS011;19550;42.872;25.494;2023-04-28T00:10:42;9.48;;;4.50;;
33184;SDS011;19550;42.872;25.494;2023-04-28T00:13:09;7.70;;;4.85;;
33184;SDS011;19550;42.872;25.494;2023-04-28T00:15:36;9.27;;;5.00;;
33184;SDS011;19550;42.872;25.494;2023-04-28T00:18:03;8.88;;;4.45;;
33184;SDS011;19550;42.872;25.494;2023-04-28T00:20:30;8.52;;;5.25;;
33184;SDS011;19550;42.872;25.494;2023-04-28T00:22:57;7.28;;;4.53;;
33184;SDS011;19550;42.872;25.494;2023-04-28T00:25:24;6.43;;;4.60;;
33184;SDS011;19550;42.872;25.494;2023-04-28T00:27:52;9.48;;;5.00;;
33184;SDS011;19550;42.872;25.494;2023-04-28T00:30:19;10.90;;;5.10;;
33184;SDS011;19550;42.872;25.494;2023-04-28T00:32:46;9.80;;;5.45;;
33184;SDS011;19550;42.872;25.494;2023-04-28T00:35:12;14.25;;;5.50;;
33184;SDS011;19550;42.872;25.494;2023-04-28T00:37:39;6.88;;;5.45;;
33184;SDS011;19550;42.872;25.494;2023-04-28T00:40:06;9.98;;;5.40;;
33184;SDS011;19550;42.872;25.494;2023-04-28T00:42:34;14.85;;;5.30;;
33184;SDS011;19550;42.872;25.494;2023-04-28T00:45:02;6.97;;;4.68;;
33184;SDS011;19550;42.872;25.494;2023-04-28T00:47:30;9.45;;;4.93;;
33184;SDS011;19550;42.872;25.494;2023-04-28T00:49:58;12.35;;;4.90;;
33184;SDS011;19550;42.872;25.494;2023-04-28T00:52:26;8.90;;;4.53;;
33184;SDS011;19550;42.872;25.494;2023-04-28T00:54:53;15.60;;;5.80;;
33184;SDS011;19550;42.872;25.494;2023-04-28T00:57:20;7.80;;;4.68;;
33184;SDS011;19550;42.872;25.494;2023-04-28T00:59:47;7.38;;;4.93;;
33184;SDS011;19550;42.872;25.494;2023-04-28T01:02:16;12.02;;;5.10;;
33184;SDS011;19550;42.872;25.494;2023-04-28T01:04:43;8.60;;;5.15;;
33184;SDS011;19550;42.872;25.494;2023-04-28T01:07:11;8.35;;;4.97;;
33184;SDS011;19550;42.872;25.494;2023-04-28T01:09:37;11.20;;;5.47;;
33184;SDS011;19550;42.872;25.494;2023-04-28T01:12:04;11.82;;;5.15;;
33184;SDS011;19550;42.872;25.494;2023-04-28T01:14:32;13.15;;;5.53;;
33184;SDS011;19550;42.872;25.494;2023-04-28T01:16:59;8.57;;;4.78;;
33184;SDS011;19550;42.872;25.494;2023-04-28T01:19:28;9.57;;;4.20;;
33184;SDS011;19550;42.872;25.494;2023-04-28T01:21:54;9.55;;;5.57;;
33184;SDS011;19550;42.872;25.494;2023-04-28T01:24:23;8.27;;;4.40;;
33184;SDS011;19550;42.872;25.494;2023-04-28T01:26:49;15.30;;;5.07;;
33184;SDS011;19550;42.872;25.494;2023-04-28T01:29:16;8.32;;;5.30;;
33184;SDS011;19550;42.872;25.494;2023-04-28T01:31:43;11.77;;;5.38;;
33184;SDS011;19550;42.872;25.494;2023-04-28T01:34:10;8.75;;;5.38;;
33184;SDS011;19550;42.872;25.494;2023-04-28T01:36:37;14.32;;;6.63;;
33184;SDS011;19550;42.872;25.494;2023-04-28T01:39:03;12.98;;;5.82;;
33184;SDS011;19550;42.872;25.494;2023-04-28T01:41:32;18.80;;;6.40;;
33184;SDS011;19550;42.872;25.494;2023-04-28T01:43:59;13.25;;;5.20;;
33184;SDS011;19550;42.872;25.494;2023-04-28T01:46:26;9.93;;;5.95;;
33184;SDS011;19550;42.872;25.494;2023-04-28T01:48:52;10.27;;;6.22;;
33184;SDS011;19550;42.872;25.494;2023-04-28T01:51:19;9.13;;;5.60;;
33184;SDS011;19550;42.872;25.494;2023-04-28T01:53:46;16.38;;;5.93;;
33184;SDS011;19550;42.872;25.494;2023-04-28T01:56:13;8.90;;;5.75;;
33184;SDS011;19550;42.872;25.494;2023-04-28T01:58:41;14.40;;;6.05;;
33184;SDS011;19550;42.872;25.494;2023-04-28T02:01:08;14.23;;;6.82;;
33184;SDS011;19550;42.872;25.494;2023-04-28T02:03:35;11.98;;;5.75;;
33184;SDS011;19550;42.872;25.494;2023-04-28T02:06:02;11.85;;;5.72;;
33184;SDS011;19550;42.872;25.494;2023-04-28T02:08:29;10.00;;;6.15;;
33184;SDS011;19550;42.872;25.494;2023-04-28T02:10:56;10.93;;;6.00;;
33184;SDS011;19550;42.872;25.494;2023-04-28T02:13:23;10.07;;;6.72;;
33184;SDS011;19550;42.872;25.494;2023-04-28T02:15:51;10.65;;;6.43;;
33184;SDS011;19550;42.872;25.494;2023-04-28T02:18:17;12.50;;;5.95;;
33184;SDS011;19550;42.872;25.494;2023-04-28T02:20:44;9.93;;;6.60;;
33184;SDS011;19550;42.872;25.494;2023-04-28T02:23:11;15.00;;;5.88;;
33184;SDS011;19550;42.872;25.494;2023-04-28T02:25:38;10.15;;;5.53;;
33184;SDS011;19550;42.872;25.494;2023-04-28T02:28:05;11.27;;;6.25;;
33184;SDS011;19550;42.872;25.494;2023-04-28T02:30:31;11.95;;;5.90;;
33184;SDS011;19550;42.872;25.494;2023-04-28T02:33:00;12.20;;;6.32;;
33184;SDS011;19550;42.872;25.494;2023-04-28T02:35:26;10.63;;;6.15;;
33184;SDS011;19550;42.872;25.494;2023-04-28T02:37:53;12.10;;;6.05;;
33184;SDS011;19550;42.872;25.494;2023-04-28T02:40:20;11.25;;;5.90;;
33184;SDS011;19550;42.872;25.494;2023-04-28T02:42:47;10.05;;;6.05;;
33184;SDS011;19550;42.872;25.494;2023-04-28T02:45:14;16.50;;;6.10;;
33184;SDS011;19550;42.872;25.494;2023-04-28T02:47:40;14.60;;;5.95;;
33184;SDS011;19550;42.872;25.494;2023-04-28T02:50:09;11.02;;;5.65;;
33184;SDS011;19550;42.872;25.494;2023-04-28T02:52:36;9.38;;;5.63;;
33184;SDS011;19550;42.872;25.494;2023-04-28T02:55:03;8.77;;;6.30;;
33184;SDS011;19550;42.872;25.494;2023-04-28T02:57:30;19.55;;;5.93;;
33184;SDS011;19550;42.872;25.494;2023-04-28T02:59:57;12.55;;;5.22;;
33184;SDS011;19550;42.872;25.494;2023-04-28T03:02:24;13.63;;;5.65;;
33184;SDS011;19550;42.872;25.494;2023-04-28T03:04:50;7.63;;;5.53;;
33184;SDS011;19550;42.872;25.494;2023-04-28T03:07:18;9.18;;;4.80;;
33184;SDS011;19550;42.872;25.494;2023-04-28T03:09:45;10.35;;;5.72;;
33184;SDS011;19550;42.872;25.494;2023-04-28T03:12:12;11.73;;;5.28;;
33184;SDS011;19550;42.872;25.494;2023-04-28T03:14:39;14.18;;;5.80;;
33184;SDS011;19550;42.872;25.494;2023-04-28T03:17:06;9.52;;;5.50;;
33184;SDS011;19550;42.872;25.494;2023-04-28T03:19:33;10.27;;;6.05;;
33184;SDS011;19550;42.872;25.494;2023-04-28T03:22:00;10.77;;;5.90;;
33184;SDS011;19550;42.872;25.494;2023-04-28T03:24:28;10.68;;;5.30;;
33184;SDS011;19550;42.872;25.494;2023-04-28T03:26:55;13.15;;;5.65;;
33184;SDS011;19550;42.872;25.494;2023-04-28T03:29:22;9.15;;;5.90;;
33184;SDS011;19550;42.872;25.494;2023-04-28T03:31:49;8.02;;;5.88;;
33184;SDS011;19550;42.872;25.494;2023-04-28T03:34:16;11.15;;;6.43;;
33184;SDS011;19550;42.872;25.494;2023-04-28T03:36:43;9.13;;;6.15;;
33184;SDS011;19550;42.872;25.494;2023-04-28T03:39:10;14.25;;;6.15;;
33184;SDS011;19550;42.872;25.494;2023-04-28T03:41:38;10.00;;;7.03;;
33184;SDS011;19550;42.872;25.494;2023-04-28T03:44:05;13.43;;;6.75;;
33184;SDS011;19550;42.872;25.494;2023-04-28T03:46:32;11.82;;;7.28;;
33184;SDS011;19550;42.872;25.494;2023-04-28T03:48:59;12.18;;;8.13;;
33184;SDS011;19550;42.872;25.494;2023-04-28T03:51:26;13.63;;;6.82;;
33184;SDS011;19550;42.872;25.494;2023-04-28T03:53:53;18.17;;;8.75;;
33184;SDS011;19550;42.872;25.494;2023-04-28T03:56:20;12.88;;;7.35;;
33184;SDS011;19550;42.872;25.494;2023-04-28T03:58:48;14.75;;;7.90;;
33184;SDS011;19550;42.872;25.494;2023-04-28T04:01:15;10.65;;;6.55;;
33184;SDS011;19550;42.872;25.494;2023-04-28T04:03:42;16.58;;;7.95;;
33184;SDS011;19550;42.872;25.494;2023-04-28T04:06:09;13.98;;;7.32;;
33184;SDS011;19550;42.872;25.494;2023-04-28T04:08:35;11.55;;;6.22;;
33184;SDS011;19550;42.872;25.494;2023-04-28T04:11:02;9.05;;;6.03;;
33184;SDS011;19550;42.872;25.494;2023-04-28T04:13:29;13.70;;;6.40;;
33184;SDS011;19550;42.872;25.494;2023-04-28T04:15:57;13.40;;;5.97;;
33184;SDS011;19550;42.872;25.494;2023-04-28T04:18:24;9.55;;;5.90;;
33184;SDS011;19550;42.872;25.494;2023-04-28T04:20:52;10.38;;;6.07;;
33184;SDS011;19550;42.872;25.494;2023-04-28T04:23:20;10.60;;;5.75;;
33184;SDS011;19550;42.872;25.494;2023-04-28T04:25:46;17.42;;;6.13;;
33184;SDS011;19550;42.872;25.494;2023-04-28T04:28:14;9.80;;;7.13;;
33184;SDS011;19550;42.872;25.494;2023-04-28T04:30:41;13.68;;;6.80;;
33184;SDS011;19550;42.872;25.494;2023-04-28T04:33:09;15.60;;;7.93;;
33184;SDS011;19550;42.872;25.494;2023-04-28T04:35:36;14.30;;;7.70;;
33184;SDS011;19550;42.872;25.494;2023-04-28T04:38:02;14.82;;;8.18;;
33184;SDS011;19550;42.872;25.494;2023-04-28T04:40:29;11.98;;;6.50;;
33184;SDS011;19550;42.872;25.494;2023-04-28T04:42:56;16.80;;;7.68;;
33184;SDS011;19550;42.872;25.494;2023-04-28T04:45:23;16.45;;;8.80;;
33184;SDS011;19550;42.872;25.494;2023-04-28T04:47:50;16.90;;;10.00;;
33184;SDS011;19550;42.872;25.494;2023-04-28T04:50:19;14.52;;;10.10;;
33184;SDS011;19550;42.872;25.494;2023-04-28T04:52:45;16.55;;;9.65;;
33184;SDS011;19550;42.872;25.494;2023-04-28T04:55:12;20.23;;;11.35;;
33184;SDS011;19550;42.872;25.494;2023-04-28T04:57:39;20.40;;;10.95;;
33184;SDS011;19550;42.872;25.494;2023-04-28T05:00:06;15.75;;;10.50;;
33184;SDS011;19550;42.872;25.494;2023-04-28T05:02:34;16.35;;;11.40;;
33184;SDS011;19550;42.872;25.494;2023-04-28T05:05:00;19.65;;;12.02;;
33184;SDS011;19550;42.872;25.494;2023-04-28T05:07:29;22.48;;;10.20;;
33184;SDS011;19550;42.872;25.494;2023-04-28T05:09:56;19.52;;;9.57;;
33184;SDS011;19550;42.872;25.494;2023-04-28T05:12:22;17.17;;;10.25;;
33184;SDS011;19550;42.872;25.494;2023-04-28T05:14:49;23.02;;;12.88;;
33184;SDS011;19550;42.872;25.494;2023-04-28T05:17:16;19.35;;;10.13;;
33184;SDS011;19550;42.872;25.494;2023-04-28T05:19:43;19.15;;;8.60;;
33184;SDS011;19550;42.872;25.494;2023-04-28T05:22:10;11.55;;;7.68;;
33184;SDS011;19550;42.872;25.494;2023-04-28T05:24:38;16.58;;;7.85;;
33184;SDS011;19550;42.872;25.494;2023-04-28T05:27:05;14.70;;;7.85;;
33184;SDS011;19550;42.872;25.494;2023-04-28T05:29:32;15.45;;;7.70;;
33184;SDS011;19550;42.872;25.494;2023-04-28T05:31:58;14.48;;;7.93;;
33184;SDS011;19550;42.872;25.494;2023-04-28T05:34:25;12.25;;;7.57;;
33184;SDS011;19550;42.872;25.494;2023-04-28T05:36:52;14.15;;;6.57;;
33184;SDS011;19550;42.872;25.494;2023-04-28T05:39:19;14.43;;;7.25;;
33184;SDS011;19550;42.872;25.494;2023-04-28T05:41:47;10.07;;;5.82;;
33184;SDS011;19550;42.872;25.494;2023-04-28T05:44:14;8.23;;;5.18;;
33184;SDS011;19550;42.872;25.494;2023-04-28T05:46:41;12.43;;;5.55;;
33184;SDS011;19550;42.872;25.494;2023-04-28T05:49:08;11.68;;;6.13;;
33184;SDS011;19550;42.872;25.494;2023-04-28T05:51:35;10.75;;;6.35;;
33184;SDS011;19550;42.872;25.494;2023-04-28T05:54:02;13.05;;;6.60;;
33184;SDS011;19550;42.872;25.494;2023-04-28T05:56:29;26.33;;;11.77;;
33184;SDS011;19550;42.872;25.494;2023-04-28T05:58:57;31.77;;;15.02;;
33184;SDS011;19550;42.872;25.494;2023-04-28T06:01:28;38.55;;;18.50;;
33184;SDS011;19550;42.872;25.494;2023-04-28T06:03:55;18.45;;;7.60;;
33184;SDS011;19550;42.872;25.494;2023-04-28T06:06:22;19.20;;;8.88;;
33184;SDS011;19550;42.872;25.494;2023-04-28T06:08:49;24.92;;;15.05;;
33184;SDS011;19550;42.872;25.494;2023-04-28T06:11:16;14.70;;;7.97;;
33184;SDS011;19550;42.872;25.494;2023-04-28T06:16:14;18.77;;;8.68;;
33184;SDS011;19550;42.872;25.494;2023-04-28T06:18:41;6.85;;;4.38;;
33184;SDS011;19550;42.872;25.494;2023-04-28T06:21:07;8.20;;;4.97;;
33184;SDS011;19550;42.872;25.494;2023-04-28T06:23:34;12.98;;;8.07;;
33184;SDS011;19550;42.872;25.494;2023-04-28T06:26:02;7.90;;;4.75;;
33184;SDS011;19550;42.872;25.494;2023-04-28T06:28:29;10.00;;;4.15;;
33184;SDS011;19550;42.872;25.494;2023-04-28T06:30:56;9.38;;;4.47;;
33184;SDS011;19550;42.872;25.494;2023-04-28T06:33:25;8.70;;;4.25;;
33184;SDS011;19550;42.872;25.494;2023-04-28T06:35:52;9.68;;;5.05;;
33184;SDS011;19550;42.872;25.494;2023-04-28T06:38:18;10.27;;;4.55;;
33184;SDS011;19550;42.872;25.494;2023-04-28T06:40:45;13.25;;;5.38;;
33184;SDS011;19550;42.872;25.494;2023-04-28T06:43:12;12.77;;;5.57;;
33184;SDS011;19550;42.872;25.494;2023-04-28T06:45:39;12.60;;;5.68;;
33184;SDS011;19550;42.872;25.494;2023-04-28T06:48:06;9.25;;;4.75;;
33184;SDS011;19550;42.872;25.494;2023-04-28T06:50:35;7.57;;;4.22;;
33184;SDS011;19550;42.872;25.494;2023-04-28T06:53:02;7.18;;;4.80;;
33184;SDS011;19550;42.872;25.494;2023-04-28T06:55:29;12.00;;;5.32;;
33184;SDS011;19550;42.872;25.494;2023-04-28T06:57:56;13.45;;;5.57;;
33184;SDS011;19550;42.872;25.494;2023-04-28T07:00:22;10.50;;;5.55;;
33184;SDS011;19550;42.872;25.494;2023-04-28T07:02:50;11.88;;;5.40;;
33184;SDS011;19550;42.872;25.494;2023-04-28T07:05:16;8.80;;;4.80;;
33184;SDS011;19550;42.872;25.494;2023-04-28T07:07:46;10.52;;;4.70;;
33184;SDS011;19550;42.872;25.494;2023-04-28T07:10:13;12.35;;;4.95;;
33184;SDS011;19550;42.872;25.494;2023-04-28T07:12:40;7.75;;;4.80;;
33184;SDS011;19550;42.872;25.494;2023-04-28T07:15:07;13.40;;;4.28;;
33184;SDS011;19550;42.872;25.494;2023-04-28T07:17:34;9.40;;;3.78;;
33184;SDS011;19550;42.872;25.494;2023-04-28T07:20:01;6.75;;;4.10;;
33184;SDS011;19550;42.872;25.494;2023-04-28T07:22:29;11.98;;;5.30;;
33184;SDS011;19550;42.872;25.494;2023-04-28T07:24:57;11.23;;;5.80;;
33184;SDS011;19550;42.872;25.494;2023-04-28T07:27:24;26.27;;;18.83;;
33184;SDS011;19550;42.872;25.494;2023-04-28T07:29:51;11.48;;;7.60;;
33184;SDS011;19550;42.872;25.494;2023-04-28T07:32:17;12.57;;;7.30;;
33184;SDS011;19550;42.872;25.494;2023-04-28T07:34:44;10.43;;;7.40;;
33184;SDS011;19550;42.872;25.494;2023-04-28T07:37:11;21.70;;;12.90;;
33184;SDS011;19550;42.872;25.494;2023-04-28T07:39:38;9.02;;;5.50;;
33184;SDS011;19550;42.872;25.494;2023-04-28T07:42:07;13.40;;;5.10;;
33184;SDS011;19550;42.872;25.494;2023-04-28T07:44:35;24.33;;;12.02;;
33184;SDS011;19550;42.872;25.494;2023-04-28T07:47:02;8.80;;;4.65;;
33184;SDS011;19550;42.872;25.494;2023-04-28T07:49:29;11.05;;;6.28;;
33184;SDS011;19550;42.872;25.494;2023-04-28T07:51:56;7.07;;;4.55;;
33184;SDS011;19550;42.872;25.494;2023-04-28T07:54:23;38.15;;;23.70;;
33184;SDS011;19550;42.872;25.494;2023-04-28T07:56:50;32.72;;;17.83;;
33184;SDS011;19550;42.872;25.494;2023-04-28T07:59:19;11.05;;;5.70;;
33184;SDS011;19550;42.872;25.494;2023-04-28T08:01:45;6.78;;;3.80;;
33184;SDS011;19550;42.872;25.494;2023-04-28T08:04:12;12.02;;;7.38;;
33184;SDS011;19550;42.872;25.494;2023-04-28T08:06:39;10.38;;;6.25;;
33184;SDS011;19550;42.872;25.494;2023-04-28T08:09:06;14.20;;;8.98;;
33184;SDS011;19550;42.872;25.494;2023-04-28T08:11:33;9.77;;;5.00;;
33184;SDS011;19550;42.872;25.494;2023-04-28T08:14:00;14.55;;;4.60;;
33184;SDS011;19550;42.872;25.494;2023-04-28T08:16:28;8.73;;;3.60;;
33184;SDS011;19550;42.872;25.494;2023-04-28T08:18:56;7.87;;;4.40;;
33184;SDS011;19550;42.872;25.494;2023-04-28T08:21:23;12.13;;;3.53;;
33184;SDS011;19550;42.872;25.494;2023-04-28T08:23:50;10.75;;;4.28;;
33184;SDS011;19550;42.872;25.494;2023-04-28T08:26:16;10.85;;;5.38;;
33184;SDS011;19550;42.872;25.494;2023-04-28T08:28:43;7.35;;;4.15;;
33184;SDS011;19550;42.872;25.494;2023-04-28T08:31:10;8.27;;;3.80;;
33184;SDS011;19550;42.872;25.494;2023-04-28T08:33:38;8.23;;;4.25;;
33184;SDS011;19550;42.872;25.494;2023-04-28T08:36:08;5.90;;;3.78;;
33184;SDS011;19550;42.872;25.494;2023-04-28T08:38:36;8.98;;;3.90;;
33184;SDS011;19550;42.872;25.494;2023-04-28T08:41:03;9.65;;;4.60;;
33184;SDS011;19550;42.872;25.494;2023-04-28T08:43:31;10.40;;;4.18;;
33184;SDS011;19550;42.872;25.494;2023-04-28T08:45:58;14.80;;;10.00;;
33184;SDS011;19550;42.872;25.494;2023-04-28T08:48:30;10.05;;;5.05;;
33184;SDS011;19550;42.872;25.494;2023-04-28T08:51:05;19.95;;;14.77;;
33184;SDS011;19550;42.872;25.494;2023-04-28T08:53:35;10.93;;;7.65;;
33184;SDS011;19550;42.872;25.494;2023-04-28T08:56:03;13.40;;;6.78;;
33184;SDS011;19550;42.872;25.494;2023-04-28T08:58:32;11.37;;;6.70;;
33184;SDS011;19550;42.872;25.494;2023-04-28T09:01:01;11.57;;;3.88;;
33184;SDS011;19550;42.872;25.494;2023-04-28T09:03:29;12.18;;;4.20;;
33184;SDS011;19550;42.872;25.494;2023-04-28T09:05:56;9.88;;;5.05;;
33184;SDS011;19550;42.872;25.494;2023-04-28T09:08:24;16.67;;;4.40;;
33184;SDS011;19550;42.872;25.494;2023-04-28T09:11:04;9.68;;;4.43;;
33184;SDS011;19550;42.872;25.494;2023-04-28T09:13:32;6.32;;;4.00;;
33184;SDS011;19550;42.872;25.494;2023-04-28T09:15:59;7.22;;;4.45;;
33184;SDS011;19550;42.872;25.494;2023-04-28T09:18:28;8.30;;;4.25;;
33184;SDS011;19550;42.872;25.494;2023-04-28T09:21:03;6.15;;;4.32;;
33184;SDS011;19550;42.872;25.494;2023-04-28T09:23:32;8.20;;;4.07;;
33184;SDS011;19550;42.872;25.494;2023-04-28T09:26:00;8.73;;;4.68;;
33184;SDS011;19550;42.872;25.494;2023-04-28T09:28:28;15.05;;;4.80;;
33184;SDS011;19550;42.872;25.494;2023-04-28T09:30:55;9.63;;;4.68;;
33184;SDS011;19550;42.872;25.494;2023-04-28T09:33:22;8.18;;;5.03;;
33184;SDS011;19550;42.872;25.494;2023-04-28T09:35:49;8.65;;;4.90;;
33184;SDS011;19550;42.872;25.494;2023-04-28T09:38:17;8.80;;;5.35;;
33184;SDS011;19550;42.872;25.494;2023-04-28T09:40:50;16.90;;;9.93;;
33184;SDS011;19550;42.872;25.494;2023-04-28T09:43:28;7.07;;;4.50;;
33184;SDS011;19550;42.872;25.494;2023-04-28T09:45:56;9.23;;;4.50;;
33184;SDS011;19550;42.872;25.494;2023-04-28T09:48:28;9.63;;;5.97;;
33184;SDS011;19550;42.872;25.494;2023-04-28T09:50:56;9.20;;;4.78;;
33184;SDS011;19550;42.872;25.494;2023-04-28T09:53:23;14.82;;;5.45;;
33184;SDS011;19550;42.872;25.494;2023-04-28T09:55:52;15.48;;;8.13;;
33184;SDS011;19550;42.872;25.494;2023-04-28T09:58:20;10.27;;;6.25;;
33184;SDS011;19550;42.872;25.494;2023-04-28T10:00:49;9.82;;;5.55;;
33184;SDS011;19550;42.872;25.494;2023-04-28T10:03:17;16.33;;;10.82;;
33184;SDS011;19550;42.872;25.494;2023-04-28T10:05:47;12.70;;;8.95;;
33184;SDS011;19550;42.872;25.494;2023-04-28T10:08:15;13.25;;;8.98;;
33184;SDS011;19550;42.872;25.494;2023-04-28T10:10:42;14.40;;;9.30;;
33184;SDS011;19550;42.872;25.494;2023-04-28T10:13:10;11.52;;;4.53;;
33184;SDS011;19550;42.872;25.494;2023-04-28T10:15:37;8.73;;;5.72;;
33184;SDS011;19550;42.872;25.494;2023-04-28T10:18:05;14.57;;;5.43;;
33184;SDS011;19550;42.872;25.494;2023-04-28T10:20:34;8.17;;;4.83;;
33184;SDS011;19550;42.872;25.494;2023-04-28T10:23:06;7.80;;;4.43;;
33184;SDS011;19550;42.872;25.494;2023-04-28T10:25:47;10.32;;;4.32;;
33184;SDS011;19550;42.872;25.494;2023-04-28T10:28:16;11.07;;;6.33;;
33184;SDS011;19550;42.872;25.494;2023-04-28T10:30:57;13.15;;;5.90;;
33184;SDS011;19550;42.872;25.494;2023-04-28T10:33:34;18.73;;;4.95;;
33184;SDS011;19550;42.872;25.494;2023-04-28T10:36:02;7.60;;;4.18;;
33184;SDS011;19550;42.872;25.494;2023-04-28T10:38:29;7.07;;;4.00;;
33184;SDS011;19550;42.872;25.494;2023-04-28T10:40:56;6.80;;;3.63;;
33184;SDS011;19550;42.872;25.494;2023-04-28T10:43:34;14.07;;;6.38;;
33184;SDS011;19550;42.872;25.494;2023-04-28T10:46:07;8.13;;;4.05;;
33184;SDS011;19550;42.872;25.494;2023-04-28T10:51:32;15.93;;;9.68;;
33184;SDS011;19550;42.872;25.494;2023-04-28T10:59:50;10.32;;;4.55;;
33184;SDS011;19550;42.872;25.494;2023-04-28T11:02:39;14.93;;;9.30;;
33184;SDS011;19550;42.872;25.494;2023-04-28T11:05:12;6.47;;;3.28;;
33184;SDS011;19550;42.872;25.494;2023-04-28T11:13:47;8.60;;;4.20;;
33184;SDS011;19550;42.872;25.494;2023-04-28T11:16:16;11.18;;;3.95;;
33184;SDS011;19550;42.872;25.494;2023-04-28T11:18:48;7.13;;;4.05;;
33184;SDS011;19550;42.872;25.494;2023-04-28T11:21:28;14.32;;;6.20;;
33184;SDS011;19550;42.872;25.494;2023-04-28T11:23:56;7.07;;;4.78;;
33184;SDS011;19550;42.872;25.494;2023-04-28T11:26:24;8.13;;;3.38;;
33184;SDS011;19550;42.872;25.494;2023-04-28T11:28:52;7.38;;;4.03;;
33184;SDS011;19550;42.872;25.494;2023-04-28T11:31:21;5.53;;;3.55;;
33184;SDS011;19550;42.872;25.494;2023-04-28T11:33:51;7.75;;;3.78;;
33184;SDS011;19550;42.872;25.494;2023-04-28T11:36:26;5.65;;;3.00;;
33184;SDS011;19550;42.872;25.494;2023-04-28T11:38:56;4.50;;;3.25;;
33184;SDS011;19550;42.872;25.494;2023-04-28T11:41:23;6.03;;;3.47;;
33184;SDS011;19550;42.872;25.494;2023-04-28T11:43:50;7.18;;;3.80;;
33184;SDS011;19550;42.872;25.494;2023-04-28T11:46:18;5.75;;;3.33;;
33184;SDS011;19550;42.872;25.494;2023-04-28T11:48:47;3.80;;;2.95;;
33184;SDS011;19550;42.872;25.494;2023-04-28T11:51:31;7.18;;;3.45;;
33184;SDS011;19550;42.872;25.494;2023-04-28T11:53:59;6.55;;;3.15;;
33184;SDS011;19550;42.872;25.494;2023-04-28T11:56:26;10.20;;;5.28;;
33184;SDS011;19550;42.872;25.494;2023-04-28T11:59:00;11.32;;;7.40;;
33184;SDS011;19550;42.872;25.494;2023-04-28T12:01:28;9.18;;;3.88;;
33184;SDS011;19550;42.872;25.494;2023-04-28T12:03:57;10.02;;;4.95;;
33184;SDS011;19550;42.872;25.494;2023-04-28T12:06:24;12.48;;;7.18;;
33184;SDS011;19550;42.872;25.494;2023-04-28T12:08:52;7.15;;;4.20;;
33184;SDS011;19550;42.872;25.494;2023-04-28T12:11:18;7.80;;;5.38;;
33184;SDS011;19550;42.872;25.494;2023-04-28T12:14:02;9.73;;;3.63;;
33184;SDS011;19550;42.872;25.494;2023-04-28T12:16:36;8.98;;;3.55;;
33184;SDS011;19550;42.872;25.494;2023-04-28T12:19:09;5.57;;;3.70;;
33184;SDS011;19550;42.872;25.494;2023-04-28T12:21:37;6.60;;;3.40;;
33184;SDS011;19550;42.872;25.494;2023-04-28T12:24:17;8.30;;;4.07;;
33184;SDS011;19550;42.872;25.494;2023-04-28T12:26:45;7.68;;;3.65;;
33184;SDS011;19550;42.872;25.494;2023-04-28T12:32:05;9.57;;;5.30;;
33184;SDS011;19550;42.872;25.494;2023-04-28T12:34:35;15.32;;;7.72;;
33184;SDS011;19550;42.872;25.494;2023-04-28T12:37:03;12.07;;;7.20;;
33184;SDS011;19550;42.872;25.494;2023-04-28T12:39:31;17.35;;;6.22;;
33184;SDS011;19550;42.872;25.494;2023-04-28T12:41:59;8.93;;;6.07;;
33184;SDS011;19550;42.872;25.494;2023-04-28T12:44:27;7.95;;;4.43;;
33184;SDS011;19550;42.872;25.494;2023-04-28T12:46:59;10.75;;;4.72;;
33184;SDS011;19550;42.872;25.494;2023-04-28T12:49:27;6.32;;;3.92;;
33184;SDS011;19550;42.872;25.494;2023-04-28T12:51:55;12.20;;;5.10;;
33184;SDS011;19550;42.872;25.494;2023-04-28T12:54:22;10.32;;;5.50;;
33184;SDS011;19550;42.872;25.494;2023-04-28T12:56:49;8.02;;;4.05;;
33184;SDS011;19550;42.872;25.494;2023-04-28T12:59:16;8.00;;;3.83;;
33184;SDS011;19550;42.872;25.494;2023-04-28T13:01:42;8.68;;;3.90;;
33184;SDS011;19550;42.872;25.494;2023-04-28T13:04:09;12.85;;;5.53;;
33184;SDS011;19550;42.872;25.494;2023-04-28T13:06:36;22.42;;;9.65;;
33184;SDS011;19550;42.872;25.494;2023-04-28T13:09:06;8.98;;;5.32;;
33184;SDS011;19550;42.872;25.494;2023-04-28T13:11:32;10.43;;;3.70;;
33184;SDS011;19550;42.872;25.494;2023-04-28T13:13:59;16.30;;;8.93;;
33184;SDS011;19550;42.872;25.494;2023-04-28T13:16:26;6.13;;;3.70;;
33184;SDS011;19550;42.872;25.494;2023-04-28T13:18:54;12.50;;;5.82;;
33184;SDS011;19550;42.872;25.494;2023-04-28T13:21:22;12.18;;;7.90;;
33184;SDS011;19550;42.872;25.494;2023-04-28T13:23:50;16.42;;;8.05;;
33184;SDS011;19550;42.872;25.494;2023-04-28T13:26:19;11.23;;;5.85;;
33184;SDS011;19550;42.872;25.494;2023-04-28T13:28:46;5.38;;;3.60;;
33184;SDS011;19550;42.872;25.494;2023-04-28T13:31:13;7.05;;;3.72;;
33184;SDS011;19550;42.872;25.494;2023-04-28T13:33:40;11.75;;;5.53;;
33184;SDS011;19550;42.872;25.494;2023-04-28T13:36:07;11.23;;;6.65;;
33184;SDS011;19550;42.872;25.494;2023-04-28T13:38:34;6.25;;;3.88;;
33184;SDS011;19550;42.872;25.494;2023-04-28T13:41:01;6.57;;;4.32;;
33184;SDS011;19550;42.872;25.494;2023-04-28T13:43:29;8.57;;;4.57;;
33184;SDS011;19550;42.872;25.494;2023-04-28T13:45:56;6.30;;;3.90;;
33184;SDS011;19550;42.872;25.494;2023-04-28T13:48:23;10.50;;;4.70;;
33184;SDS011;19550;42.872;25.494;2023-04-28T13:50:51;11.63;;;4.72;;
33184;SDS011;19550;42.872;25.494;2023-04-28T13:53:18;11.55;;;6.38;;
33184;SDS011;19550;42.872;25.494;2023-04-28T13:55:45;11.13;;;5.95;;
33184;SDS011;19550;42.872;25.494;2023-04-28T13:58:12;8.98;;;6.15;;
33184;SDS011;19550;42.872;25.494;2023-04-28T14:00:40;8.32;;;5.82;;
33184;SDS011;19550;42.872;25.494;2023-04-28T14:03:07;8.40;;;5.50;;
33184;SDS011;19550;42.872;25.494;2023-04-28T14:05:35;12.63;;;5.43;;
33184;SDS011;19550;42.872;25.494;2023-04-28T14:08:02;13.60;;;5.68;;
33184;SDS011;19550;42.872;25.494;2023-04-28T14:10:30;11.32;;;6.50;;
33184;SDS011;19550;42.872;25.494;2023-04-28T14:12:57;8.75;;;5.10;;
33184;SDS011;19550;42.872;25.494;2023-04-28T14:15:23;6.00;;;4.60;;
33184;SDS011;19550;42.872;25.494;2023-04-28T14:17:52;9.30;;;5.63;;
33184;SDS011;19550;42.872;25.494;2023-04-28T14:20:19;10.05;;;5.80;;
33184;SDS011;19550;42.872;25.494;2023-04-28T14:22:45;7.13;;;5.38;;
33184;SDS011;19550;42.872;25.494;2023-04-28T14:25:12;13.70;;;7.88;;
33184;SDS011;19550;42.872;25.494;2023-04-28T14:27:39;10.98;;;6.45;;
33184;SDS011;19550;42.872;25.494;2023-04-28T14:30:06;8.00;;;5.28;;
33184;SDS011;19550;42.872;25.494;2023-04-28T14:32:34;6.43;;;3.80;;
33184;SDS011;19550;42.872;25.494;2023-04-28T14:35:04;12.07;;;6.25;;
33184;SDS011;19550;42.872;25.494;2023-04-28T14:37:31;14.68;;;8.32;;
33184;SDS011;19550;42.872;25.494;2023-04-28T14:39:58;12.85;;;9.35;;
33184;SDS011;19550;42.872;25.494;2023-04-28T14:42:26;63.70;;;37.50;;
33184;SDS011;19550;42.872;25.494;2023-04-28T14:44:54;55.03;;;33.03;;
33184;SDS011;19550;42.872;25.494;2023-04-28T14:47:21;70.30;;;45.63;;
33184;SDS011;19550;42.872;25.494;2023-04-28T14:49:48;23.23;;;14.55;;